sensor_id;sensor_type;location;lat;lon;timestamp;temperature;humidity
22827;DHT22;11580;52.562;13.418;2023-03-11T00:00:36;6.20;24.10
22827;DHT22;11580;52.562;13.418;2023-03-11T00:03:06;6.20;24.10
22827;DHT22;11580;52.562;13.418;2023-03-11T00:05:36;6.10;26.80
22827;DHT22;11580;52.562;13.418;2023-03-11T00:08:06;6.10;24.40
22827;DHT22;11580;52.562;13.418;2023-03-11T00:10:36;6.10;24.00
22827;DHT22;11580;52.562;13.418;2023-03-11T00:13:07;6.00;24.00
22827;DHT22;11580;52.562;13.418;2023-03-11T00:15:38;6.00;24.00
22827;DHT22;11580;52.562;13.418;2023-03-11T00:18:06;5.90;27.30
22827;DHT22;11580;52.562;13.418;2023-03-11T00:20:35;5.80;23.80
22827;DHT22;11580;52.562;13.418;2023-03-11T00:23:05;5.80;24.60
22827;DHT22;11580;52.562;13.418;2023-03-11T00:25:35;5.70;24.80
22827;DHT22;11580;52.562;13.418;2023-03-11T00:28:05;5.60;30.30
22827;DHT22;11580;52.562;13.418;2023-03-11T00:30:35;5.60;26.50
22827;DHT22;11580;52.562;13.418;2023-03-11T00:33:03;5.50;23.60
22827;DHT22;11580;52.562;13.418;2023-03-11T00:35:32;5.40;30.20
22827;DHT22;11580;52.562;13.418;2023-03-11T00:38:02;5.40;29.20
22827;DHT22;11580;52.562;13.418;2023-03-11T00:40:32;5.30;28.70
22827;DHT22;11580;52.562;13.418;2023-03-11T00:43:01;5.30;26.90
22827;DHT22;11580;52.562;13.418;2023-03-11T00:45:31;5.20;24.50
22827;DHT22;11580;52.562;13.418;2023-03-11T00:47:58;5.20;29.10
22827;DHT22;11580;52.562;13.418;2023-03-11T00:50:28;5.20;31.40
22827;DHT22;11580;52.562;13.418;2023-03-11T00:52:57;5.20;27.90
22827;DHT22;11580;52.562;13.418;2023-03-11T00:55:26;5.20;32.90
22827;DHT22;11580;52.562;13.418;2023-03-11T00:57:57;5.10;24.60
22827;DHT22;11580;52.562;13.418;2023-03-11T01:00:33;5.10;24.50
22827;DHT22;11580;52.562;13.418;2023-03-11T01:03:02;5.10;31.80
22827;DHT22;11580;52.562;13.418;2023-03-11T01:05:31;5.10;34.40
22827;DHT22;11580;52.562;13.418;2023-03-11T01:08:01;5.10;65.00
22827;DHT22;11580;52.562;13.418;2023-03-11T01:10:31;5.00;99.90
22827;DHT22;11580;52.562;13.418;2023-03-11T01:13:02;5.00;99.90
22827;DHT22;11580;52.562;13.418;2023-03-11T01:15:33;5.00;1.00
22827;DHT22;11580;52.562;13.418;2023-03-11T01:18:03;5.00;16.40
22827;DHT22;11580;52.562;13.418;2023-03-11T01:20:32;5.00;33.80
22827;DHT22;11580;52.562;13.418;2023-03-11T01:23:00;5.00;39.10
22827;DHT22;11580;52.562;13.418;2023-03-11T01:25:27;4.90;39.40
22827;DHT22;11580;52.562;13.418;2023-03-11T01:27:56;4.90;41.20
22827;DHT22;11580;52.562;13.418;2023-03-11T01:30:24;4.90;41.90
22827;DHT22;11580;52.562;13.418;2023-03-11T01:32:56;4.90;42.40
22827;DHT22;11580;52.562;13.418;2023-03-11T01:35:26;4.90;43.00
22827;DHT22;11580;52.562;13.418;2023-03-11T01:37:54;4.90;43.10
22827;DHT22;11580;52.562;13.418;2023-03-11T01:40:25;4.90;43.00
22827;DHT22;11580;52.562;13.418;2023-03-11T01:42:56;4.90;43.30
22827;DHT22;11580;52.562;13.418;2023-03-11T01:46:01;4.90;43.10
22827;DHT22;11580;52.562;13.418;2023-03-11T01:48:34;4.90;44.40
22827;DHT22;11580;52.562;13.418;2023-03-11T01:51:04;4.90;43.70
22827;DHT22;11580;52.562;13.418;2023-03-11T01:53:32;4.90;43.70
22827;DHT22;11580;52.562;13.418;2023-03-11T01:56:01;4.90;43.80
22827;DHT22;11580;52.562;13.418;2023-03-11T01:58:34;4.90;44.00
22827;DHT22;11580;52.562;13.418;2023-03-11T02:01:06;4.80;44.10
22827;DHT22;11580;52.562;13.418;2023-03-11T02:03:37;4.90;44.00
22827;DHT22;11580;52.562;13.418;2023-03-11T02:06:10;5.00;44.30
22827;DHT22;11580;52.562;13.418;2023-03-11T02:08:40;4.90;44.90
22827;DHT22;11580;52.562;13.418;2023-03-11T02:11:14;4.90;44.10
22827;DHT22;11580;52.562;13.418;2023-03-11T02:13:44;4.90;44.30
22827;DHT22;11580;52.562;13.418;2023-03-11T02:16:12;4.90;44.30
22827;DHT22;11580;52.562;13.418;2023-03-11T02:18:41;4.90;44.30
22827;DHT22;11580;52.562;13.418;2023-03-11T02:21:22;4.90;45.10
22827;DHT22;11580;52.562;13.418;2023-03-11T02:23:57;4.90;44.70
22827;DHT22;11580;52.562;13.418;2023-03-11T02:26:34;4.90;44.50
22827;DHT22;11580;52.562;13.418;2023-03-11T02:29:09;4.90;44.50
22827;DHT22;11580;52.562;13.418;2023-03-11T02:31:38;4.90;44.50
22827;DHT22;11580;52.562;13.418;2023-03-11T02:34:11;4.90;44.50
22827;DHT22;11580;52.562;13.418;2023-03-11T02:36:44;4.90;44.50
22827;DHT22;11580;52.562;13.418;2023-03-11T02:39:13;4.90;44.40
22827;DHT22;11580;52.562;13.418;2023-03-11T02:41:43;4.90;44.40
22827;DHT22;11580;52.562;13.418;2023-03-11T02:44:15;4.90;44.70
22827;DHT22;11580;52.562;13.418;2023-03-11T02:46:43;4.90;44.80
22827;DHT22;11580;52.562;13.418;2023-03-11T02:49:11;5.00;44.70
22827;DHT22;11580;52.562;13.418;2023-03-11T02:51:39;5.00;44.70
22827;DHT22;11580;52.562;13.418;2023-03-11T02:54:07;5.00;44.80
22827;DHT22;11580;52.562;13.418;2023-03-11T02:56:35;5.00;44.70
22827;DHT22;11580;52.562;13.418;2023-03-11T02:59:02;5.00;45.40
22827;DHT22;11580;52.562;13.418;2023-03-11T03:01:31;5.00;44.70
22827;DHT22;11580;52.562;13.418;2023-03-11T03:03:59;5.00;44.80
22827;DHT22;11580;52.562;13.418;2023-03-11T03:06:29;5.00;45.40
22827;DHT22;11580;52.562;13.418;2023-03-11T03:08:56;5.00;44.70
22827;DHT22;11580;52.562;13.418;2023-03-11T03:11:24;5.10;45.60
22827;DHT22;11580;52.562;13.418;2023-03-11T03:13:51;5.10;44.90
22827;DHT22;11580;52.562;13.418;2023-03-11T03:16:18;5.10;45.50
22827;DHT22;11580;52.562;13.418;2023-03-11T03:18:48;5.10;44.80
22827;DHT22;11580;52.562;13.418;2023-03-11T03:21:16;5.10;44.90
22827;DHT22;11580;52.562;13.418;2023-03-11T03:23:43;5.10;44.70
22827;DHT22;11580;52.562;13.418;2023-03-11T03:26:11;5.10;44.70
22827;DHT22;11580;52.562;13.418;2023-03-11T03:28:41;5.10;44.90
22827;DHT22;11580;52.562;13.418;2023-03-11T03:31:09;5.10;44.90
22827;DHT22;11580;52.562;13.418;2023-03-11T03:33:39;5.10;44.90
22827;DHT22;11580;52.562;13.418;2023-03-11T03:36:10;5.10;45.50
22827;DHT22;11580;52.562;13.418;2023-03-11T03:38:42;5.10;44.90
22827;DHT22;11580;52.562;13.418;2023-03-11T03:41:12;5.10;44.70
22827;DHT22;11580;52.562;13.418;2023-03-11T03:43:41;5.10;44.90
22827;DHT22;11580;52.562;13.418;2023-03-11T03:46:09;5.10;44.90
22827;DHT22;11580;52.562;13.418;2023-03-11T03:48:42;5.10;45.00
22827;DHT22;11580;52.562;13.418;2023-03-11T03:51:13;5.10;44.90
22827;DHT22;11580;52.562;13.418;2023-03-11T03:53:49;5.10;45.10
22827;DHT22;11580;52.562;13.418;2023-03-11T03:56:17;5.10;45.30
22827;DHT22;11580;52.562;13.418;2023-03-11T03:58:44;5.10;45.20
22827;DHT22;11580;52.562;13.418;2023-03-11T04:01:12;5.20;45.20
22827;DHT22;11580;52.562;13.418;2023-03-11T04:03:40;5.10;45.20
22827;DHT22;11580;52.562;13.418;2023-03-11T04:06:15;5.10;45.20
22827;DHT22;11580;52.562;13.418;2023-03-11T04:08:49;5.10;45.40
22827;DHT22;11580;52.562;13.418;2023-03-11T04:11:18;5.20;45.40
22827;DHT22;11580;52.562;13.418;2023-03-11T04:13:46;5.20;45.30
22827;DHT22;11580;52.562;13.418;2023-03-11T04:16:16;5.20;45.20
22827;DHT22;11580;52.562;13.418;2023-03-11T04:18:46;5.20;45.30
22827;DHT22;11580;52.562;13.418;2023-03-11T04:21:15;5.20;45.20
22827;DHT22;11580;52.562;13.418;2023-03-11T04:23:43;5.30;46.20
22827;DHT22;11580;52.562;13.418;2023-03-11T04:26:13;5.20;45.40
22827;DHT22;11580;52.562;13.418;2023-03-11T04:28:41;5.20;45.30
22827;DHT22;11580;52.562;13.418;2023-03-11T04:31:08;5.20;45.30
22827;DHT22;11580;52.562;13.418;2023-03-11T04:33:36;5.30;45.40
22827;DHT22;11580;52.562;13.418;2023-03-11T04:36:08;5.20;45.30
22827;DHT22;11580;52.562;13.418;2023-03-11T04:38:39;5.30;45.40
22827;DHT22;11580;52.562;13.418;2023-03-11T04:41:08;5.30;45.40
22827;DHT22;11580;52.562;13.418;2023-03-11T04:43:38;5.30;45.40
22827;DHT22;11580;52.562;13.418;2023-03-11T04:46:05;5.30;45.40
22827;DHT22;11580;52.562;13.418;2023-03-11T04:48:32;5.30;45.40
22827;DHT22;11580;52.562;13.418;2023-03-11T04:51:00;5.30;45.30
22827;DHT22;11580;52.562;13.418;2023-03-11T04:53:28;5.30;45.30
22827;DHT22;11580;52.562;13.418;2023-03-11T04:55:57;5.30;45.40
22827;DHT22;11580;52.562;13.418;2023-03-11T04:58:25;5.30;45.50
22827;DHT22;11580;52.562;13.418;2023-03-11T05:00:52;5.30;45.60
22827;DHT22;11580;52.562;13.418;2023-03-11T05:03:21;5.30;45.60
22827;DHT22;11580;52.562;13.418;2023-03-11T05:05:48;5.30;45.60
22827;DHT22;11580;52.562;13.418;2023-03-11T05:08:19;5.30;45.50
22827;DHT22;11580;52.562;13.418;2023-03-11T05:10:46;5.30;45.40
22827;DHT22;11580;52.562;13.418;2023-03-11T05:13:15;5.30;45.40
22827;DHT22;11580;52.562;13.418;2023-03-11T05:15:44;5.30;46.10
22827;DHT22;11580;52.562;13.418;2023-03-11T05:18:11;5.30;46.00
22827;DHT22;11580;52.562;13.418;2023-03-11T05:20:38;5.30;45.10
22827;DHT22;11580;52.562;13.418;2023-03-11T05:23:07;5.30;45.30
22827;DHT22;11580;52.562;13.418;2023-03-11T05:25:36;5.30;45.50
22827;DHT22;11580;52.562;13.418;2023-03-11T05:28:04;5.30;45.40
22827;DHT22;11580;52.562;13.418;2023-03-11T05:30:36;5.40;45.50
22827;DHT22;11580;52.562;13.418;2023-03-11T05:33:04;5.30;45.60
22827;DHT22;11580;52.562;13.418;2023-03-11T05:35:31;5.40;45.70
22827;DHT22;11580;52.562;13.418;2023-03-11T05:37:58;5.40;45.70
22827;DHT22;11580;52.562;13.418;2023-03-11T05:40:27;5.40;45.70
22827;DHT22;11580;52.562;13.418;2023-03-11T05:42:55;5.40;46.40
22827;DHT22;11580;52.562;13.418;2023-03-11T05:45:23;5.40;46.40
22827;DHT22;11580;52.562;13.418;2023-03-11T05:47:54;5.40;45.80
22827;DHT22;11580;52.562;13.418;2023-03-11T05:50:22;5.40;45.90
22827;DHT22;11580;52.562;13.418;2023-03-11T05:52:51;5.40;45.80
22827;DHT22;11580;52.562;13.418;2023-03-11T05:55:19;5.40;45.80
22827;DHT22;11580;52.562;13.418;2023-03-11T05:57:50;5.50;45.80
22827;DHT22;11580;52.562;13.418;2023-03-11T06:00:18;5.50;45.80
22827;DHT22;11580;52.562;13.418;2023-03-11T06:02:50;5.50;45.70
22827;DHT22;11580;52.562;13.418;2023-03-11T06:05:20;5.50;45.70
22827;DHT22;11580;52.562;13.418;2023-03-11T06:07:49;5.50;45.70
22827;DHT22;11580;52.562;13.418;2023-03-11T06:10:17;5.50;45.60
22827;DHT22;11580;52.562;13.418;2023-03-11T06:12:45;5.50;46.40
22827;DHT22;11580;52.562;13.418;2023-03-11T06:15:18;5.50;45.70
22827;DHT22;11580;52.562;13.418;2023-03-11T06:17:46;5.50;45.40
22827;DHT22;11580;52.562;13.418;2023-03-11T06:20:13;5.50;45.30
22827;DHT22;11580;52.562;13.418;2023-03-11T06:22:42;5.50;45.40
22827;DHT22;11580;52.562;13.418;2023-03-11T06:25:10;5.50;46.30
22827;DHT22;11580;52.562;13.418;2023-03-11T06:27:39;5.50;45.70
22827;DHT22;11580;52.562;13.418;2023-03-11T06:30:08;5.50;45.70
22827;DHT22;11580;52.562;13.418;2023-03-11T06:32:44;5.50;45.80
22827;DHT22;11580;52.562;13.418;2023-03-11T06:35:12;5.50;45.80
22827;DHT22;11580;52.562;13.418;2023-03-11T06:37:42;5.50;45.70
22827;DHT22;11580;52.562;13.418;2023-03-11T06:40:11;5.60;45.80
22827;DHT22;11580;52.562;13.418;2023-03-11T06:42:39;5.60;45.60
22827;DHT22;11580;52.562;13.418;2023-03-11T06:45:10;5.60;45.70
22827;DHT22;11580;52.562;13.418;2023-03-11T06:47:39;5.60;45.90
22827;DHT22;11580;52.562;13.418;2023-03-11T06:50:07;5.60;46.50
22827;DHT22;11580;52.562;13.418;2023-03-11T06:52:34;5.60;45.80
22827;DHT22;11580;52.562;13.418;2023-03-11T06:55:04;5.60;45.80
22827;DHT22;11580;52.562;13.418;2023-03-11T06:57:32;5.60;46.10
22827;DHT22;11580;52.562;13.418;2023-03-11T07:00:03;5.60;46.10
22827;DHT22;11580;52.562;13.418;2023-03-11T07:02:35;5.70;46.20
22827;DHT22;11580;52.562;13.418;2023-03-11T07:05:03;5.70;46.10
22827;DHT22;11580;52.562;13.418;2023-03-11T07:07:32;5.70;46.10
22827;DHT22;11580;52.562;13.418;2023-03-11T07:10:00;5.70;45.80
22827;DHT22;11580;52.562;13.418;2023-03-11T07:12:28;5.70;45.70
22827;DHT22;11580;52.562;13.418;2023-03-11T07:14:57;5.70;45.50
22827;DHT22;11580;52.562;13.418;2023-03-11T07:17:26;5.70;46.20
22827;DHT22;11580;52.562;13.418;2023-03-11T07:19:53;5.70;45.70
22827;DHT22;11580;52.562;13.418;2023-03-11T07:22:21;5.70;46.10
22827;DHT22;11580;52.562;13.418;2023-03-11T07:24:48;5.70;46.50
22827;DHT22;11580;52.562;13.418;2023-03-11T07:27:16;5.70;46.50
22827;DHT22;11580;52.562;13.418;2023-03-11T07:29:45;5.80;46.50
22827;DHT22;11580;52.562;13.418;2023-03-11T07:32:12;5.80;46.60
22827;DHT22;11580;52.562;13.418;2023-03-11T07:34:40;5.80;46.50
22827;DHT22;11580;52.562;13.418;2023-03-11T07:37:07;5.90;46.70
22827;DHT22;11580;52.562;13.418;2023-03-11T07:39:34;5.90;46.80
22827;DHT22;11580;52.562;13.418;2023-03-11T07:42:03;5.90;47.40
22827;DHT22;11580;52.562;13.418;2023-03-11T07:44:34;6.00;46.50
22827;DHT22;11580;52.562;13.418;2023-03-11T07:47:04;6.00;46.30
22827;DHT22;11580;52.562;13.418;2023-03-11T07:49:33;6.00;46.90
22827;DHT22;11580;52.562;13.418;2023-03-11T07:52:00;6.10;47.30
22827;DHT22;11580;52.562;13.418;2023-03-11T07:54:27;6.10;47.90
22827;DHT22;11580;52.562;13.418;2023-03-11T07:56:54;6.20;48.20
22827;DHT22;11580;52.562;13.418;2023-03-11T07:59:21;6.20;48.10
22827;DHT22;11580;52.562;13.418;2023-03-11T08:01:48;6.30;48.70
22827;DHT22;11580;52.562;13.418;2023-03-11T08:04:17;6.40;47.80
22827;DHT22;11580;52.562;13.418;2023-03-11T08:06:46;6.40;47.80
22827;DHT22;11580;52.562;13.418;2023-03-11T08:09:13;6.50;47.50
22827;DHT22;11580;52.562;13.418;2023-03-11T08:11:41;6.50;48.00
22827;DHT22;11580;52.562;13.418;2023-03-11T08:14:09;6.50;47.20
22827;DHT22;11580;52.562;13.418;2023-03-11T08:16:38;6.60;47.20
22827;DHT22;11580;52.562;13.418;2023-03-11T08:19:06;6.60;47.50
22827;DHT22;11580;52.562;13.418;2023-03-11T08:21:38;6.60;47.30
22827;DHT22;11580;52.562;13.418;2023-03-11T08:24:06;6.60;46.90
22827;DHT22;11580;52.562;13.418;2023-03-11T08:26:35;6.60;46.60
22827;DHT22;11580;52.562;13.418;2023-03-11T08:29:03;6.60;46.50
22827;DHT22;11580;52.562;13.418;2023-03-11T08:31:32;6.60;46.80
22827;DHT22;11580;52.562;13.418;2023-03-11T08:34:02;6.60;46.80
22827;DHT22;11580;52.562;13.418;2023-03-11T08:36:31;6.60;46.60
22827;DHT22;11580;52.562;13.418;2023-03-11T08:39:00;6.60;47.40
22827;DHT22;11580;52.562;13.418;2023-03-11T08:41:28;6.60;46.60
22827;DHT22;11580;52.562;13.418;2023-03-11T08:43:55;6.60;46.70
22827;DHT22;11580;52.562;13.418;2023-03-11T08:46:25;6.60;47.40
22827;DHT22;11580;52.562;13.418;2023-03-11T08:48:54;6.70;48.20
22827;DHT22;11580;52.562;13.418;2023-03-11T08:51:23;6.70;48.40
22827;DHT22;11580;52.562;13.418;2023-03-11T08:53:52;6.70;48.40
22827;DHT22;11580;52.562;13.418;2023-03-11T08:56:21;6.80;48.70
22827;DHT22;11580;52.562;13.418;2023-03-11T08:58:48;6.90;48.80
22827;DHT22;11580;52.562;13.418;2023-03-11T09:01:15;7.00;48.80
22827;DHT22;11580;52.562;13.418;2023-03-11T09:03:45;7.00;48.80
22827;DHT22;11580;52.562;13.418;2023-03-11T09:06:13;7.10;48.60
22827;DHT22;11580;52.562;13.418;2023-03-11T09:08:42;7.20;48.50
22827;DHT22;11580;52.562;13.418;2023-03-11T09:11:10;7.20;47.90
22827;DHT22;11580;52.562;13.418;2023-03-11T09:13:39;7.30;47.90
22827;DHT22;11580;52.562;13.418;2023-03-11T09:16:07;7.30;47.80
22827;DHT22;11580;52.562;13.418;2023-03-11T09:18:36;7.30;48.00
22827;DHT22;11580;52.562;13.418;2023-03-11T09:21:03;7.40;48.20
22827;DHT22;11580;52.562;13.418;2023-03-11T09:23:31;7.40;48.50
22827;DHT22;11580;52.562;13.418;2023-03-11T09:25:58;7.50;48.70
22827;DHT22;11580;52.562;13.418;2023-03-11T09:28:25;7.50;48.50
22827;DHT22;11580;52.562;13.418;2023-03-11T09:30:54;7.60;47.90
22827;DHT22;11580;52.562;13.418;2023-03-11T09:33:23;7.60;47.40
22827;DHT22;11580;52.562;13.418;2023-03-11T09:35:50;7.60;47.30
22827;DHT22;11580;52.562;13.418;2023-03-11T09:38:18;7.70;47.80
22827;DHT22;11580;52.562;13.418;2023-03-11T09:40:51;7.70;47.40
22827;DHT22;11580;52.562;13.418;2023-03-11T09:43:34;7.80;45.30
22827;DHT22;11580;52.562;13.418;2023-03-11T09:49:19;7.90;56.90
22827;DHT22;11580;52.562;13.418;2023-03-11T09:51:56;7.90;25.00
22827;DHT22;11580;52.562;13.418;2023-03-11T09:54:29;7.90;25.10
22827;DHT22;11580;52.562;13.418;2023-03-11T09:57:03;8.00;26.70
22827;DHT22;11580;52.562;13.418;2023-03-11T09:59:32;8.00;25.10
22827;DHT22;11580;52.562;13.418;2023-03-11T10:02:04;8.00;25.10
22827;DHT22;11580;52.562;13.418;2023-03-11T10:04:35;8.10;25.20
22827;DHT22;11580;52.562;13.418;2023-03-11T10:07:13;8.10;25.20
22827;DHT22;11580;52.562;13.418;2023-03-11T10:09:49;8.20;25.30
22827;DHT22;11580;52.562;13.418;2023-03-11T10:12:24;8.20;25.30
22827;DHT22;11580;52.562;13.418;2023-03-11T10:15:15;8.30;25.30
22827;DHT22;11580;52.562;13.418;2023-03-11T10:18:04;8.30;25.30
22827;DHT22;11580;52.562;13.418;2023-03-11T10:20:46;8.30;25.30
22827;DHT22;11580;52.562;13.418;2023-03-11T10:23:25;8.40;25.40
22827;DHT22;11580;52.562;13.418;2023-03-11T10:26:02;8.40;25.40
22827;DHT22;11580;52.562;13.418;2023-03-11T10:28:41;8.40;28.10
22827;DHT22;11580;52.562;13.418;2023-03-11T10:31:19;8.40;25.40
22827;DHT22;11580;52.562;13.418;2023-03-11T10:33:55;8.40;25.40
22827;DHT22;11580;52.562;13.418;2023-03-11T10:36:34;8.50;25.40
22827;DHT22;11580;52.562;13.418;2023-03-11T10:39:09;8.50;25.40
22827;DHT22;11580;52.562;13.418;2023-03-11T10:41:41;8.60;25.50
22827;DHT22;11580;52.562;13.418;2023-03-11T10:44:13;8.60;28.30
22827;DHT22;11580;52.562;13.418;2023-03-11T10:46:42;8.70;25.60
22827;DHT22;11580;52.562;13.418;2023-03-11T10:49:13;8.70;37.30
22827;DHT22;11580;52.562;13.418;2023-03-11T10:51:45;8.70;63.10
22827;DHT22;11580;52.562;13.418;2023-03-11T10:54:21;8.70;77.70
22827;DHT22;11580;52.562;13.418;2023-03-11T10:56:55;8.70;97.30
22827;DHT22;11580;52.562;13.418;2023-03-11T10:59:26;8.70;99.90
22827;DHT22;11580;52.562;13.418;2023-03-11T11:01:57;8.70;99.90
22827;DHT22;11580;52.562;13.418;2023-03-11T11:04:34;8.60;99.90
22827;DHT22;11580;52.562;13.418;2023-03-11T11:07:20;8.70;99.90
22827;DHT22;11580;52.562;13.418;2023-03-11T11:10:14;8.60;99.90
22827;DHT22;11580;52.562;13.418;2023-03-11T11:12:54;8.60;99.90
22827;DHT22;11580;52.562;13.418;2023-03-11T11:15:25;8.60;99.90
22827;DHT22;11580;52.562;13.418;2023-03-11T11:17:58;8.60;99.90
22827;DHT22;11580;52.562;13.418;2023-03-11T11:20:29;8.50;97.30
22827;DHT22;11580;52.562;13.418;2023-03-11T11:23:00;8.50;99.90
22827;DHT22;11580;52.562;13.418;2023-03-11T11:25:31;8.40;99.90
22827;DHT22;11580;52.562;13.418;2023-03-11T11:28:01;8.40;84.70
22827;DHT22;11580;52.562;13.418;2023-03-11T11:30:30;8.40;89.90
22827;DHT22;11580;52.562;13.418;2023-03-11T11:33:21;8.40;83.50
22827;DHT22;11580;52.562;13.418;2023-03-11T11:35:53;8.50;76.70
22827;DHT22;11580;52.562;13.418;2023-03-11T11:38:23;8.50;74.50
22827;DHT22;11580;52.562;13.418;2023-03-11T11:40:54;8.50;90.90
22827;DHT22;11580;52.562;13.418;2023-03-11T11:43:35;8.50;87.20
22827;DHT22;11580;52.562;13.418;2023-03-11T11:46:17;8.60;99.90
22827;DHT22;11580;52.562;13.418;2023-03-11T11:48:54;8.70;99.90
22827;DHT22;11580;52.562;13.418;2023-03-11T11:51:32;8.70;99.90
22827;DHT22;11580;52.562;13.418;2023-03-11T11:54:12;8.70;99.90
22827;DHT22;11580;52.562;13.418;2023-03-11T11:56:42;8.70;99.90
22827;DHT22;11580;52.562;13.418;2023-03-11T11:59:15;8.70;99.90
22827;DHT22;11580;52.562;13.418;2023-03-11T12:01:51;8.80;99.90
22827;DHT22;11580;52.562;13.418;2023-03-11T12:04:45;8.80;99.90
22827;DHT22;11580;52.562;13.418;2023-03-11T12:07:46;8.80;1.00
22827;DHT22;11580;52.562;13.418;2023-03-11T12:10:23;8.80;1.00
22827;DHT22;11580;52.562;13.418;2023-03-11T12:13:15;8.80;1.00
22827;DHT22;11580;52.562;13.418;2023-03-11T12:16:01;8.90;1.00
22827;DHT22;11580;52.562;13.418;2023-03-11T12:18:38;8.90;1.70
22827;DHT22;11580;52.562;13.418;2023-03-11T12:21:18;8.90;14.90
22827;DHT22;11580;52.562;13.418;2023-03-11T12:24:08;9.00;23.50
22827;DHT22;11580;52.562;13.418;2023-03-11T12:26:49;9.10;37.80
22827;DHT22;11580;52.562;13.418;2023-03-11T12:29:23;9.20;43.40
22827;DHT22;11580;52.562;13.418;2023-03-11T12:31:54;9.10;47.00
22827;DHT22;11580;52.562;13.418;2023-03-11T12:34:23;9.20;47.20
22827;DHT22;11580;52.562;13.418;2023-03-11T12:36:51;9.20;46.70
22827;DHT22;11580;52.562;13.418;2023-03-11T12:39:30;9.20;46.50
22827;DHT22;11580;52.562;13.418;2023-03-11T12:42:14;9.10;47.10
22827;DHT22;11580;52.562;13.418;2023-03-11T12:44:44;9.10;46.40
22827;DHT22;11580;52.562;13.418;2023-03-11T12:47:25;9.10;47.00
22827;DHT22;11580;52.562;13.418;2023-03-11T12:49:54;9.10;47.10
22827;DHT22;11580;52.562;13.418;2023-03-11T12:52:52;9.10;47.00
22827;DHT22;11580;52.562;13.418;2023-03-11T12:55:33;9.10;46.70
22827;DHT22;11580;52.562;13.418;2023-03-11T13:04:31;9.20;46.50
22827;DHT22;11580;52.562;13.418;2023-03-11T13:07:40;9.20;45.90
22827;DHT22;11580;52.562;13.418;2023-03-11T13:10:16;9.10;45.10
22827;DHT22;11580;52.562;13.418;2023-03-11T13:12:48;9.10;44.90
22827;DHT22;11580;52.562;13.418;2023-03-11T13:15:36;9.10;45.50
22827;DHT22;11580;52.562;13.418;2023-03-11T13:18:17;9.00;46.20
22827;DHT22;11580;52.562;13.418;2023-03-11T13:20:54;9.00;45.00
22827;DHT22;11580;52.562;13.418;2023-03-11T13:23:29;9.00;45.60
22827;DHT22;11580;52.562;13.418;2023-03-11T13:26:27;9.00;46.30
22827;DHT22;11580;52.562;13.418;2023-03-11T13:32:29;9.00;44.40
22827;DHT22;11580;52.562;13.418;2023-03-11T13:35:21;9.00;44.10
22827;DHT22;11580;52.562;13.418;2023-03-11T13:38:13;8.90;43.70
22827;DHT22;11580;52.562;13.418;2023-03-11T13:40:57;8.90;43.80
22827;DHT22;11580;52.562;13.418;2023-03-11T13:43:27;8.90;44.90
22827;DHT22;11580;52.562;13.418;2023-03-11T13:46:00;8.80;45.20
22827;DHT22;11580;52.562;13.418;2023-03-11T13:48:35;8.80;44.90
22827;DHT22;11580;52.562;13.418;2023-03-11T13:51:13;8.80;43.80
22827;DHT22;11580;52.562;13.418;2023-03-11T13:53:46;8.80;43.10
22827;DHT22;11580;52.562;13.418;2023-03-11T13:56:21;8.70;43.60
22827;DHT22;11580;52.562;13.418;2023-03-11T13:58:51;8.70;43.00
22827;DHT22;11580;52.562;13.418;2023-03-11T14:01:20;8.60;42.80
22827;DHT22;11580;52.562;13.418;2023-03-11T14:03:47;8.60;41.40
22827;DHT22;11580;52.562;13.418;2023-03-11T14:06:17;8.50;41.40
22827;DHT22;11580;52.562;13.418;2023-03-11T14:08:51;8.40;41.40
22827;DHT22;11580;52.562;13.418;2023-03-11T14:11:24;8.30;41.20
22827;DHT22;11580;52.562;13.418;2023-03-11T14:13:53;8.20;41.50
22827;DHT22;11580;52.562;13.418;2023-03-11T14:16:24;8.10;42.10
22827;DHT22;11580;52.562;13.418;2023-03-11T14:19:02;8.10;41.80
22827;DHT22;11580;52.562;13.418;2023-03-11T14:21:33;8.00;41.20
22827;DHT22;11580;52.562;13.418;2023-03-11T14:24:02;8.00;42.20
22827;DHT22;11580;52.562;13.418;2023-03-11T14:26:31;7.90;41.50
22827;DHT22;11580;52.562;13.418;2023-03-11T14:29:06;7.90;41.90
22827;DHT22;11580;52.562;13.418;2023-03-11T14:31:38;7.80;41.00
22827;DHT22;11580;52.562;13.418;2023-03-11T14:34:13;7.80;41.40
22827;DHT22;11580;52.562;13.418;2023-03-11T14:36:43;7.70;41.10
22827;DHT22;11580;52.562;13.418;2023-03-11T14:39:24;7.70;41.90
22827;DHT22;11580;52.562;13.418;2023-03-11T14:42:00;7.70;40.70
22827;DHT22;11580;52.562;13.418;2023-03-11T14:44:34;7.70;42.20
22827;DHT22;11580;52.562;13.418;2023-03-11T14:47:10;7.80;42.70
22827;DHT22;11580;52.562;13.418;2023-03-11T14:49:46;7.80;41.80
22827;DHT22;11580;52.562;13.418;2023-03-11T14:52:18;7.90;43.00
22827;DHT22;11580;52.562;13.418;2023-03-11T14:55:00;8.00;42.60
22827;DHT22;11580;52.562;13.418;2023-03-11T14:57:34;8.00;41.80
22827;DHT22;11580;52.562;13.418;2023-03-11T15:00:11;8.10;41.20
22827;DHT22;11580;52.562;13.418;2023-03-11T15:02:53;8.10;40.70
22827;DHT22;11580;52.562;13.418;2023-03-11T15:05:30;8.10;40.30
22827;DHT22;11580;52.562;13.418;2023-03-11T15:08:03;8.10;40.80
22827;DHT22;11580;52.562;13.418;2023-03-11T15:10:33;8.10;40.60
22827;DHT22;11580;52.562;13.418;2023-03-11T15:13:10;8.10;40.70
22827;DHT22;11580;52.562;13.418;2023-03-11T15:15:41;8.10;40.00
22827;DHT22;11580;52.562;13.418;2023-03-11T15:18:23;8.00;40.30
22827;DHT22;11580;52.562;13.418;2023-03-11T15:21:03;7.90;38.40
22827;DHT22;11580;52.562;13.418;2023-03-11T15:23:34;7.90;40.10
22827;DHT22;11580;52.562;13.418;2023-03-11T15:26:02;7.90;40.40
22827;DHT22;11580;52.562;13.418;2023-03-11T15:28:33;7.90;40.00
22827;DHT22;11580;52.562;13.418;2023-03-11T15:31:23;7.80;40.00
22827;DHT22;11580;52.562;13.418;2023-03-11T15:34:07;7.80;38.60
22827;DHT22;11580;52.562;13.418;2023-03-11T15:37:03;7.80;38.20
22827;DHT22;11580;52.562;13.418;2023-03-11T15:39:48;7.80;38.30
22827;DHT22;11580;52.562;13.418;2023-03-11T15:42:19;7.80;40.40
22827;DHT22;11580;52.562;13.418;2023-03-11T15:45:03;7.90;40.00
22827;DHT22;11580;52.562;13.418;2023-03-11T15:47:37;7.90;38.80
22827;DHT22;11580;52.562;13.418;2023-03-11T15:50:24;8.00;39.60
22827;DHT22;11580;52.562;13.418;2023-03-11T15:52:54;8.00;37.90
22827;DHT22;11580;52.562;13.418;2023-03-11T15:55:24;8.00;38.40
22827;DHT22;11580;52.562;13.418;2023-03-11T15:57:58;7.90;38.30
22827;DHT22;11580;52.562;13.418;2023-03-11T16:00:28;7.90;38.00
22827;DHT22;11580;52.562;13.418;2023-03-11T16:02:55;7.80;38.30
22827;DHT22;11580;52.562;13.418;2023-03-11T16:05:24;7.80;38.90
22827;DHT22;11580;52.562;13.418;2023-03-11T16:07:52;7.70;37.20
22827;DHT22;11580;52.562;13.418;2023-03-11T16:10:21;7.70;37.80
22827;DHT22;11580;52.562;13.418;2023-03-11T16:12:50;7.60;36.90